Time,TemperatureF,DewpointF,PressureIn,WindDirection,WindDirectionDegrees,WindSpeedMPH,WindSpeedGustMPH,Humidity,HourlyPrecipIn,Conditions,Clouds,dailyrainin,SoftwareType,DateUTC
2014-03-13 00:12:00,16.3,9.8,29.88,South,180,0.0,-999.0,75,-99.99,,,0.00,Acu-Link.com,2014-03-13 05:12:00,
2014-03-13 00:27:00,15.8,9.9,29.88,East,90,0.0,-999.0,77,-99.99,,,0.00,Acu-Link.com,2014-03-13 05:27:00,
2014-03-13 00:42:00,15.8,10.2,29.87,SSE,157,0.0,-999.0,78,-99.99,,,0.00,Acu-Link.com,2014-03-13 05:42:00,
2014-03-13 00:58:00,15.6,10.6,29.87,SSW,202,0.0,-999.0,80,-99.99,,,0.00,Acu-Link.com,2014-03-13 05:58:00,
2014-03-13 01:13:00,15.8,11.3,29.87,SW,225,0.0,-999.0,82,-99.99,,,0.00,Acu-Link.com,2014-03-13 06:13:00,
2014-03-13 01:28:00,16.0,12.0,29.86,South,180,4.7,-999.0,84,-99.99,,,0.00,Acu-Link.com,2014-03-13 06:28:00,
2014-03-13 02:45:00,17.1,13.9,29.87,South,180,4.7,-999.0,87,-99.99,,,0.00,Acu-Link.com,2014-03-13 07:45:00,
2014-03-13 03:00:00,17.6,14.7,29.85,SSW,202,0.0,-999.0,88,-99.99,,,0.00,Acu-Link.com,2014-03-13 08:00:00,
2014-03-13 03:15:00,18.1,15.2,29.84,SW,225,0.0,-999.0,88,-99.99,,,0.00,Acu-Link.com,2014-03-13 08:15:00,
2014-03-13 03:30:00,18.9,16.2,29.83,SW,225,0.0,-999.0,89,-99.99,,,0.00,Acu-Link.com,2014-03-13 08:30:00,
2014-03-13 03:46:00,19.4,16.7,29.83,SSW,202,4.2,-999.0,89,-99.99,,,0.00,Acu-Link.com,2014-03-13 08:46:00,
2014-03-13 04:01:00,19.8,17.1,29.82,SSE,157,3.2,-999.0,89,-99.99,,,0.00,Acu-Link.com,2014-03-13 09:01:00,
2014-03-13 04:16:00,19.2,16.5,29.82,South,180,0.0,-999.0,89,-99.99,,,0.00,Acu-Link.com,2014-03-13 09:16:00,
2014-03-13 04:31:00,19.2,16.8,29.81,South,180,3.2,-999.0,90,-99.99,,,0.00,Acu-Link.com,2014-03-13 09:31:00,
2014-03-13 04:47:00,20.1,17.6,29.82,SW,225,4.2,-999.0,90,-99.99,,,0.00,Acu-Link.com,2014-03-13 09:47:00,
2014-03-13 05:02:00,21.0,18.5,29.81,South,180,5.8,-999.0,90,-99.99,,,0.00,Acu-Link.com,2014-03-13 10:02:00,
2014-03-13 05:17:00,20.8,18.3,29.80,South,180,5.8,-999.0,90,-99.99,,,0.00,Acu-Link.com,2014-03-13 10:17:00,
2014-03-13 05:32:00,21.0,18.5,29.78,SSE,157,5.8,-999.0,90,-99.99,,,0.00,Acu-Link.com,2014-03-13 10:32:00,
2014-03-13 05:47:00,21.0,18.5,29.76,SSW,202,7.3,-999.0,90,-99.99,,,0.00,Acu-Link.com,2014-03-13 10:47:00,
2014-03-13 06:02:00,21.4,19.2,29.74,SSE,157,4.7,-999.0,91,-99.99,,,0.00,Acu-Link.com,2014-03-13 11:02:00,
2014-03-13 06:17:00,21.6,19.4,29.72,SW,225,5.3,-999.0,91,-99.99,,,0.00,Acu-Link.com,2014-03-13 11:17:00,
2014-03-13 06:33:00,21.4,19.4,29.71,SSW,202,4.7,-999.0,92,-99.99,,,0.00,Acu-Link.com,2014-03-13 11:33:00,
2014-03-13 06:48:00,23.0,21.0,29.70,SSW,202,5.3,-999.0,92,-99.99,,,0.00,Acu-Link.com,2014-03-13 11:48:00,
2014-03-13 07:03:00,22.8,21.1,29.69,SW,225,3.2,-999.0,93,-99.99,,,0.00,Acu-Link.com,2014-03-13 12:03:00,
2014-03-13 07:18:00,21.0,19.3,29.70,SE,135,5.3,-999.0,93,-99.99,,,0.00,Acu-Link.com,2014-03-13 12:18:00,
2014-03-13 07:33:00,21.0,19.6,29.71,West,270,4.2,-999.0,94,-99.99,,,0.00,Acu-Link.com,2014-03-13 12:33:00,
2014-03-13 07:48:00,21.4,19.9,29.70,SSE,157,5.3,-999.0,94,-99.99,,,0.00,Acu-Link.com,2014-03-13 12:48:00,
2014-03-13 08:03:00,22.1,20.6,29.70,SSE,157,4.2,-999.0,94,-99.99,,,0.00,Acu-Link.com,2014-03-13 13:03:00,
2014-03-13 08:19:00,22.6,21.1,29.71,SW,225,3.2,-999.0,94,-99.99,,,0.00,Acu-Link.com,2014-03-13 13:19:00,
2014-03-13 08:34:00,24.3,22.6,29.69,SSW,202,6.8,-999.0,93,-99.99,,,0.00,Acu-Link.com,2014-03-13 13:34:00,
2014-03-13 08:49:00,25.2,23.2,29.68,WSW,247,7.3,-999.0,92,-99.99,,,0.00,Acu-Link.com,2014-03-13 13:49:00,
2014-03-13 09:04:00,26.2,24.2,29.67,SW,225,8.3,-999.0,92,-99.99,,,0.00,Acu-Link.com,2014-03-13 14:04:00,
2014-03-13 09:19:00,27.7,25.4,29.68,SSW,202,5.8,-999.0,91,-99.99,,,0.00,Acu-Link.com,2014-03-13 14:19:00,
2014-03-13 09:34:00,29.3,26.7,29.67,SW,225,4.7,-999.0,90,-99.99,,,0.00,Acu-Link.com,2014-03-13 14:34:00,
2014-03-13 09:49:00,31.6,28.7,29.68,South,180,5.3,-999.0,89,-99.99,,,0.00,Acu-Link.com,2014-03-13 14:49:00,
2014-03-13 10:04:00,32.9,29.7,29.66,SW,225,8.9,-999.0,88,-99.99,,,0.00,Acu-Link.com,2014-03-13 15:04:00,
2014-03-13 10:19:00,33.8,30.3,29.65,SW,225,7.3,-999.0,87,-99.99,,,0.00,Acu-Link.com,2014-03-13 15:19:00,
2014-03-13 10:34:00,35.1,31.3,29.65,SW,225,7.8,-999.0,86,-99.99,,,0.00,Acu-Link.com,2014-03-13 15:34:00,
2014-03-13 10:49:00,37.9,33.5,29.65,WSW,247,5.3,-999.0,84,-99.99,,,0.00,Acu-Link.com,2014-03-13 15:49:00,
2014-03-13 11:05:00,37.4,33.0,29.65,South,180,5.8,-999.0,84,-99.99,,,0.00,Acu-Link.com,2014-03-13 16:05:00,
2014-03-13 11:20:00,39.6,34.6,29.64,SW,225,7.3,-999.0,82,-99.99,,,0.00,Acu-Link.com,2014-03-13 16:20:00,
2014-03-13 11:35:00,41.2,35.8,29.64,SW,225,7.8,-999.0,81,-99.99,,,0.00,Acu-Link.com,2014-03-13 16:35:00,
2014-03-13 11:50:00,41.5,36.1,29.63,SSE,157,5.8,-999.0,81,-99.99,,,0.00,Acu-Link.com,2014-03-13 16:50:00,
2014-03-13 12:05:00,43.2,37.5,29.63,South,180,7.8,-999.0,80,-99.99,,,0.00,Acu-Link.com,2014-03-13 17:05:00,
2014-03-13 12:20:00,43.3,37.2,29.62,SW,225,5.8,-999.0,79,-99.99,,,0.00,Acu-Link.com,2014-03-13 17:20:00,
2014-03-13 12:36:00,45.0,38.6,29.62,West,270,8.3,-999.0,78,-99.99,,,0.00,Acu-Link.com,2014-03-13 17:36:00,
2014-03-13 12:51:00,47.1,39.2,29.62,SSE,157,4.2,-999.0,74,-99.99,,,0.00,Acu-Link.com,2014-03-13 17:51:00,
2014-03-13 13:06:00,46.0,38.5,29.61,WSW,247,4.7,-999.0,75,-99.99,,,0.00,Acu-Link.com,2014-03-13 18:06:00,
2014-03-13 13:22:00,46.9,39.1,29.61,SW,225,4.7,-999.0,74,-99.99,,,0.00,Acu-Link.com,2014-03-13 18:22:00,
2014-03-13 13:37:00,47.1,39.2,29.60,South,180,6.3,-999.0,74,-99.99,,,0.00,Acu-Link.com,2014-03-13 18:37:00,
2014-03-13 13:52:00,46.8,39.0,29.60,SSW,202,5.8,-999.0,74,-99.99,,,0.00,Acu-Link.com,2014-03-13 18:52:00,
2014-03-13 14:07:00,47.7,39.8,29.58,WSW,247,5.8,-999.0,74,-99.99,,,0.00,Acu-Link.com,2014-03-13 19:07:00,
2014-03-13 14:22:00,46.6,39.1,29.58,SSE,157,6.3,-999.0,75,-99.99,,,0.00,Acu-Link.com,2014-03-13 19:22:00,
2014-03-13 14:37:00,46.4,39.3,29.57,SSW,202,5.3,-999.0,76,-99.99,,,0.00,Acu-Link.com,2014-03-13 19:37:00,
2014-03-13 14:52:00,47.5,40.0,29.57,SW,225,6.3,-999.0,75,-99.99,,,0.00,Acu-Link.com,2014-03-13 19:52:00,
2014-03-13 15:08:00,47.7,40.2,29.56,SW,225,7.8,-999.0,75,-99.99,,,0.00,Acu-Link.com,2014-03-13 20:08:00,
2014-03-13 15:23:00,47.3,39.8,29.55,SSW,202,5.8,-999.0,75,-99.99,,,0.00,Acu-Link.com,2014-03-13 20:23:00,
2014-03-13 15:38:00,48.6,40.7,29.56,SW,225,5.3,-999.0,74,-99.99,,,0.00,Acu-Link.com,2014-03-13 20:38:00,
2014-03-13 15:53:00,48.2,40.7,29.55,SSW,202,4.2,-999.0,75,-99.99,,,0.00,Acu-Link.com,2014-03-13 20:53:00,
2014-03-13 16:08:00,46.8,39.6,29.54,SSW,202,7.8,-999.0,76,-99.99,,,0.00,Acu-Link.com,2014-03-13 21:08:00,
2014-03-13 16:23:00,47.1,39.9,29.54,SSW,202,5.8,-999.0,76,-99.99,,,0.00,Acu-Link.com,2014-03-13 21:23:00,
2014-03-13 16:38:00,48.2,41.0,29.54,SSW,202,5.8,-999.0,76,-99.99,,,0.00,Acu-Link.com,2014-03-13 21:38:00,
2014-03-13 16:53:00,48.2,40.7,29.53,SW,225,7.3,-999.0,75,-99.99,,,0.00,Acu-Link.com,2014-03-13 21:53:00,
2014-03-13 17:08:00,48.2,41.0,29.53,SW,225,5.3,-999.0,76,-99.99,,,0.00,Acu-Link.com,2014-03-13 22:08:00,
2014-03-13 17:23:00,48.2,41.3,29.52,South,180,4.7,-999.0,77,-99.99,,,0.00,Acu-Link.com,2014-03-13 22:23:00,
2014-03-13 17:39:00,47.1,40.9,29.51,SSE,157,5.8,-999.0,79,-99.99,,,0.00,Acu-Link.com,2014-03-13 22:39:00,
2014-03-13 17:54:00,46.8,41.0,29.50,SW,225,5.8,-999.0,80,-99.99,,,0.00,Acu-Link.com,2014-03-13 22:54:00,
2014-03-13 18:09:00,46.8,41.6,29.50,SSW,202,2.2,-999.0,82,-99.99,,,0.00,Acu-Link.com,2014-03-13 23:09:00,
2014-03-13 18:24:00,46.2,41.3,29.50,SSE,157,3.7,-999.0,83,-99.99,,,0.00,Acu-Link.com,2014-03-13 23:24:00,
2014-03-13 18:40:00,45.0,41.1,29.48,South,180,3.7,-999.0,86,-99.99,,,0.00,Acu-Link.com,2014-03-13 23:40:00,
2014-03-13 18:55:00,43.5,40.5,29.47,South,180,4.7,-999.0,89,-99.99,,,0.00,Acu-Link.com,2014-03-13 23:55:00,
2014-03-13 19:10:00,42.6,40.4,29.47,SSE,157,4.2,-999.0,92,-99.99,,,0.00,Acu-Link.com,2014-03-14 00:10:00,
2014-03-13 19:25:00,42.3,40.4,29.46,South,180,0.0,-999.0,93,-99.99,,,0.00,Acu-Link.com,2014-03-14 00:25:00,
2014-03-13 19:41:00,42.1,40.8,29.46,SW,225,6.3,-999.0,95,-99.99,,,0.00,Acu-Link.com,2014-03-14 00:41:00,
2014-03-13 19:56:00,42.1,40.8,29.46,SSW,202,7.3,-999.0,95,-99.99,,,0.00,Acu-Link.com,2014-03-14 00:56:00,
2014-03-13 20:11:00,41.5,40.4,29.45,South,180,3.7,-999.0,96,-99.99,,,0.00,Acu-Link.com,2014-03-14 01:11:00,
2014-03-13 20:26:00,41.7,40.6,29.46,SSW,202,3.7,-999.0,96,-99.99,,,0.00,Acu-Link.com,2014-03-14 01:26:00,
2014-03-13 20:42:00,41.2,40.4,29.43,WSW,247,4.2,-999.0,97,-99.99,,,0.00,Acu-Link.com,2014-03-14 01:42:00,
2014-03-13 20:57:00,40.8,40.0,29.43,West,270,2.7,-999.0,97,-99.99,,,0.00,Acu-Link.com,2014-03-14 01:57:00,
2014-03-13 21:12:00,41.2,40.4,29.44,West,270,0.0,-999.0,97,-99.99,,,0.00,Acu-Link.com,2014-03-14 02:12:00,
2014-03-13 21:27:00,40.6,40.1,29.45,SE,135,0.0,-999.0,98,-99.99,,,0.00,Acu-Link.com,2014-03-14 02:27:00,
2014-03-13 21:43:00,40.6,40.1,29.45,SW,225,0.0,-999.0,98,-99.99,,,0.00,Acu-Link.com,2014-03-14 02:43:00,
2014-03-13 21:58:00,40.8,40.3,29.44,SSW,202,0.0,-999.0,98,-99.99,,,0.00,Acu-Link.com,2014-03-14 02:58:00,
2014-03-13 22:13:00,41.4,40.6,29.43,SSW,202,7.8,-999.0,97,-99.99,,,0.00,Acu-Link.com,2014-03-14 03:13:00,
2014-03-13 22:29:00,41.9,40.8,29.41,SSW,202,5.3,-999.0,96,-99.99,,,0.00,Acu-Link.com,2014-03-14 03:29:00,
2014-03-13 22:44:00,42.1,40.5,29.42,South,180,5.8,-999.0,94,-99.99,,,0.00,Acu-Link.com,2014-03-14 03:44:00,
2014-03-13 22:59:00,42.1,40.5,29.42,SSW,202,6.3,-999.0,94,-99.99,,,0.00,Acu-Link.com,2014-03-14 03:59:00,
2014-03-13 23:14:00,41.9,40.0,29.41,SSW,202,5.3,-999.0,93,-99.99,,,0.00,Acu-Link.com,2014-03-14 04:14:00,
2014-03-13 23:29:00,41.7,39.8,29.41,SW,225,5.8,-999.0,93,-99.99,,,0.00,Acu-Link.com,2014-03-14 04:29:00,
2014-03-13 23:45:00,41.7,39.8,29.41,SW,225,0.0,-999.0,93,-99.99,,,0.00,Acu-Link.com,2014-03-14 04:45:00,